Artesia Wells, Texas
Current Conditions -  °F | °C
As of 6:53 AM on Tuesday 21 Oct 2014 (Local Time) from KCOT Reporting Station
Broken Clouds Broken Clouds  
Wind Chill: 19°   Ceiling: 8500
Heat Index: 19°   Visibility: 7mi
Dew Point: 17°   Wind: 9mph
Humidity: 87%   Direction: 60°ENE
Pressure: 30.01"   Gusts: NA
Location:  28.28°N, 99.29°W
Report Text: KCOT 211153Z AUTO 06008KT 7SM BKN085 19/17 A3001 RMK AO2 SLP156 T01940172 10222 20194 53009
Loading
Personal Weather Stations






























Interactive Weather Map
Tropical Storm Tracking
New forecast layout! Learn more

10-Day Weather Forecast

Advertisements
Track Severe Weather on mobile